Time;durP1;ratioP1;P1;durP2;ratioP2;P2;SDS_P1;SDS_P2;PMS_P1;PMS_P2;Temp;Humidity;BMP_temperature;BMP_pressure;BME280_temperature;BME280_humidity;BME280_pressure;Samples;Min_cycle;Max_cycle;Signal;HPM_P1;HPM_P2
2021/01/29 00:00:01;;;;;;;35.72;18.48;;;51.30;2227.20;;;;;;5113098;28;20024;-67
2021/01/29 00:02:26;;;;;;;39.92;18.88;;;51.30;2227.20;;;;;;5113958;27;20058;-67
2021/01/29 00:04:52;;;;;;;43.70;21.38;;;51.40;2227.20;;;;;;5116994;27;20604;-68
2021/01/29 00:07:18;;;;;;;33.38;18.10;;;51.40;2227.20;;;;;;5115562;27;20051;-67
2021/01/29 00:09:44;;;;;;;36.20;18.33;;;51.40;2227.20;;;;;;5096443;27;20364;-69
2021/01/29 00:12:09;;;;;;;45.13;22.50;;;51.40;2227.20;;;;;;5112384;27;20023;-68
2021/01/29 00:14:35;;;;;;;36.75;18.55;;;51.40;2227.20;;;;;;5114279;27;20285;-68
2021/01/29 00:17:01;;;;;;;41.08;19.80;;;51.40;2201.60;;;;;;5113949;27;20387;-67
2021/01/29 00:19:27;;;;;;;33.83;17.42;;;51.40;2201.60;;;;;;5117172;27;20007;-67
2021/01/29 00:21:52;;;;;;;44.47;19.10;;;51.50;2201.60;;;;;;5113514;27;20058;-68
2021/01/29 00:24:18;;;;;;;76.07;28.35;;;51.50;2201.60;;;;;;5114130;27;20461;-68
2021/01/29 00:26:44;;;;;;;76.60;34.60;;;51.50;2227.20;;;;;;5115505;27;20020;-67
2021/01/29 00:29:10;;;;;;;34.40;18.52;;;51.50;2227.20;;;;;;5094800;27;20403;-68
2021/01/29 00:31:37;;;;;;;27.40;14.57;;;51.50;2227.20;;;;;;5115043;27;20069;-69
2021/01/29 00:34:04;;;;;;;25.13;13.73;;;51.60;2227.20;;;;;;5117301;27;20038;-71
2021/01/29 00:36:30;;;;;;;19.92;11.65;;;51.50;2227.20;;;;;;5112382;27;20058;-69
2021/01/29 00:38:55;;;;;;;33.13;17.42;;;51.50;2201.60;;;;;;5111157;28;20475;-67
2021/01/29 00:41:24;;;;;;;29.38;14.45;;;51.50;2227.20;;;;;;5114621;27;20020;-70
2021/01/29 00:43:51;;;;;;;25.38;12.25;;;51.50;2201.60;;;;;;5109867;27;20019;-70
2021/01/29 00:46:18;;;;;;;30.75;14.90;;;51.50;2201.60;;;;;;5111384;28;20110;-68
2021/01/29 00:48:45;;;;;;;21.70;10.95;;;51.50;2227.20;;;;;;5112092;28;20047;-71
2021/01/29 00:51:11;;;;;;;21.30;10.73;;;51.40;2227.20;;;;;;5112717;28;20092;-69
2021/01/29 00:53:37;;;;;;;20.95;11.30;;;51.40;2227.20;;;;;;5112505;28;20468;-67
2021/01/29 00:56:03;;;;;;;23.80;12.07;;;51.30;2227.20;;;;;;5111874;28;20030;-68
2021/01/29 00:58:28;;;;;;;29.77;13.90;;;51.20;2227.20;;;;;;5112031;28;20380;-66
2021/01/29 01:00:54;;;;;;;27.85;14.63;;;51.20;2227.20;;;;;;5111254;28;20514;-68
2021/01/29 01:03:20;;;;;;;27.75;15.00;;;51.20;2227.20;;;;;;5112329;28;20030;-68
2021/01/29 01:05:45;;;;;;;23.17;13.18;;;26.50;2201.60;;;;;;5116736;27;20558;-69
2021/01/29 01:08:11;;;;;;;22.48;12.95;;;26.50;2201.60;;;;;;5113852;27;20050;-68
2021/01/29 01:10:37;;;;;;;26.95;14.27;;;26.50;2201.60;;;;;;5111838;28;20016;-70
2021/01/29 01:13:02;;;;;;;32.53;14.73;;;26.40;2201.60;;;;;;5111939;28;20015;-66
2021/01/29 01:15:28;;;;;;;34.08;17.50;;;26.40;2201.60;;;;;;5106213;28;20020;-68
2021/01/29 01:17:55;;;;;;;33.28;16.65;;;26.40;2201.60;;;;;;5111872;28;20011;-68
2021/01/29 01:20:22;;;;;;;255.80;93.82;;;26.40;2201.60;;;;;;5109061;28;20011;-67
2021/01/29 01:22:48;;;;;;;34.42;17.20;;;26.50;2201.60;;;;;;5112060;28;20040;-68
2021/01/29 01:25:14;;;;;;;22.73;12.95;;;26.50;2201.60;;;;;;5111558;28;20060;-68
2021/01/29 01:27:39;;;;;;;36.70;15.00;;;26.40;2201.60;;;;;;5111730;28;20073;-68
2021/01/29 01:30:07;;;;;;;51.90;28.00;;;26.40;2201.60;;;;;;5093086;28;20027;-67
2021/01/29 01:32:32;;;;;;;30.30;15.70;;;26.40;2201.60;;;;;;5112761;27;20499;-67
2021/01/29 01:34:58;;;;;;;23.38;13.80;;;26.40;2201.60;;;;;;5114814;27;20035;-66
2021/01/29 01:37:27;;;;;;;37.17;19.77;;;26.40;2201.60;;;;;;5111523;28;20020;-65
2021/01/29 01:39:52;;;;;;;34.15;16.08;;;26.40;2201.60;;;;;;5117466;27;20020;-67
2021/01/29 01:42:18;;;;;;;56.33;21.40;;;26.40;2201.60;;;;;;5113170;27;20049;-66
2021/01/29 01:44:44;;;;;;;44.05;21.40;;;26.40;2201.60;;;;;;5112206;27;20106;-66
2021/01/29 01:47:29;;;;;;;46.17;22.92;;;26.30;2201.60;;;;;;5116246;27;20106;-67
2021/01/29 01:50:00;;;;;;;38.88;19.67;;;26.30;2201.60;;;;;;5106161;27;20073;-66
2021/01/29 01:52:33;;;;;;;40.92;19.65;;;26.30;2201.60;;;;;;5081867;28;20049;-68
2021/01/29 01:55:12;;;;;;;34.17;17.40;;;26.30;2201.60;;;;;;5100079;28;20027;-68
2021/01/29 01:57:38;;;;;;;39.70;20.05;;;26.40;2201.60;;;;;;5092909;28;20030;-66
2021/01/29 02:00:08;;;;;;;46.78;22.67;;;26.40;2201.60;;;;;;5092560;28;20028;-68
2021/01/29 02:02:48;;;;;;;35.95;18.77;;;26.50;2201.60;;;;;;5093524;28;20076;-68
2021/01/29 02:05:19;;;;;;;30.83;16.73;;;26.50;2201.60;;;;;;5105523;27;20110;-68
2021/01/29 02:08:04;;;;;;;28.80;14.43;;;26.40;2201.60;;;;;;5090841;28;20496;-67
2021/01/29 02:10:33;;;;;;;35.45;16.90;;;26.40;2201.60;;;;;;5077193;28;20115;-67
2021/01/29 02:13:00;;;;;;;37.17;18.08;;;26.30;2201.60;;;;;;5109838;28;20091;-68
2021/01/29 02:15:30;;;;;;;32.75;17.05;;;26.40;2201.60;;;;;;5110600;28;20031;-67
2021/01/29 02:18:02;;;;;;;;;;;26.30;2201.60;;;;;;5073677;28;20043;-68
2021/01/29 02:20:39;;;;;;;43.33;22.60;;;26.20;2201.60;;;;;;5111245;28;20026;-68
2021/01/29 02:23:42;;;;;;;27.85;14.90;;;26.20;2201.60;;;;;;5109864;28;20514;-75
2021/01/29 02:26:17;;;;;;;24.15;13.50;;;26.30;2201.60;;;;;;5111455;28;20096;-69
2021/01/29 02:29:37;;;;;;;28.13;13.48;;;26.40;2201.60;;;;;;5116085;28;20419;-68
2021/01/29 02:32:38;;;;;;;26.53;13.70;;;26.40;2201.60;;;;;;5104928;28;20498;-68
2021/01/29 02:35:22;;;;;;;;;;;26.50;2201.60;;;;;;5104119;28;20042;-68
2021/01/29 02:38:21;;;;;;;26.60;15.32;;;26.40;2201.60;;;;;;5118654;28;19929;-68
2021/01/29 02:41:09;;;;;;;25.80;14.05;;;26.10;2201.60;;;;;;5098294;28;20019;-68
2021/01/29 02:43:51;;;;;;;23.88;14.18;;;26.00;2201.60;;;;;;5111193;28;20047;-67
2021/01/29 02:46:52;;;;;;;23.75;13.38;;;25.90;2201.60;;;;;;5111123;28;20110;-67
2021/01/29 02:49:42;;;;;;;20.52;12.05;;;25.90;2201.60;;;;;;5079355;28;20039;-67
2021/01/29 02:52:31;;;;;;;;;;;26.00;2201.60;;;;;;5093224;28;20019;-69
2021/01/29 02:55:12;;;;;;;20.55;11.50;;;26.10;2201.60;;;;;;5100078;28;19915;-67
2021/01/29 02:57:54;;;;;;;27.13;14.57;;;26.20;2201.60;;;;;;5110703;28;20494;-69
2021/01/29 03:00:23;;;;;;;28.10;15.40;;;26.30;2201.60;;;;;;5092703;28;20067;-68
2021/01/29 03:02:59;;;;;;;25.38;13.30;;;26.40;2201.60;;;;;;5097009;28;20022;-69
2021/01/29 03:05:49;;;;;;;36.65;17.77;;;26.40;2201.60;;;;;;5077175;28;20098;-67
2021/01/29 03:08:31;;;;;;;27.05;15.13;;;26.40;2201.60;;;;;;5099477;28;20588;-68
2021/01/29 03:11:20;;;;;;;33.10;17.02;;;26.30;2201.60;;;;;;5092628;28;20036;-69
2021/01/29 03:14:19;;;;;;;26.33;15.65;;;26.30;2201.60;;;;;;5092926;28;20027;-68
2021/01/29 03:16:49;;;;;;;30.45;16.00;;;26.30;2201.60;;;;;;5045681;28;20054;-69
2021/01/29 03:19:33;;;;;;;27.33;14.95;;;26.40;2201.60;;;;;;5110538;28;20015;-69
2021/01/29 03:22:38;;;;;;;28.40;15.18;;;26.30;2201.60;;;;;;5088865;28;20048;-73
2021/01/29 03:25:19;;;;;;;22.58;12.70;;;26.30;2201.60;;;;;;5109281;28;20036;-69
2021/01/29 03:27:45;;;;;;;;;;;26.30;2201.60;;;;;;5078586;28;20024;-68
2021/01/29 03:30:16;;;;;;;27.42;13.02;;;26.20;2201.60;;;;;;5092871;28;19908;-68
2021/01/29 03:32:42;;;;;;;;;;;26.30;2201.60;;;;;;5093650;28;20097;-70
2021/01/29 03:35:29;;;;;;;40.00;18.05;;;26.20;2201.60;;;;;;5092786;28;20314;-68
2021/01/29 03:38:08;;;;;;;28.05;14.10;;;26.30;2201.60;;;;;;5092841;28;20103;-69
2021/01/29 03:40:40;;;;;;;33.00;16.83;;;26.20;2201.60;;;;;;5097480;28;20026;-65
2021/01/29 03:43:13;;;;;;;21.83;12.75;;;26.20;2201.60;;;;;;5101554;28;20050;-69
2021/01/29 03:45:42;;;;;;;22.38;11.98;;;26.20;2201.60;;;;;;5104858;28;20030;-69
2021/01/29 03:48:27;;;;;;;63.47;27.42;;;26.20;2201.60;;;;;;5098618;28;20099;-68
2021/01/29 03:51:11;;;;;;;45.42;20.80;;;26.20;2201.60;;;;;;5093820;28;20020;-69
2021/01/29 03:53:52;;;;;;;28.25;15.13;;;26.10;2201.60;;;;;;5092692;28;20047;-68
2021/01/29 03:56:46;;;;;;;34.38;18.35;;;26.10;2201.60;;;;;;5092561;28;20453;-69
2021/01/29 03:59:44;;;;;;;26.48;14.68;;;26.10;2201.60;;;;;;5092247;28;20034;-67
2021/01/29 04:02:20;;;;;;;76.53;28.20;;;26.20;2201.60;;;;;;5087752;28;20081;-68
2021/01/29 04:05:13;;;;;;;60.00;27.20;;;26.20;2201.60;;;;;;5092345;28;20028;-69
2021/01/29 04:07:50;;;;;;;125.75;44.25;;;26.30;2201.60;;;;;;5092375;28;20468;-70
2021/01/29 04:10:18;;;;;;;50.80;23.45;;;26.30;2201.60;;;;;;5091628;28;20032;-69
2021/01/29 04:12:46;;;;;;;23.05;11.68;;;26.40;2201.60;;;;;;5092064;28;20020;-69
2021/01/29 04:15:29;;;;;;;49.35;21.63;;;26.40;2201.60;;;;;;5092322;28;20404;-67
2021/01/29 04:18:12;;;;;;;36.95;17.52;;;26.40;2201.60;;;;;;5079287;28;20496;-68
2021/01/29 04:20:45;;;;;;;51.20;23.98;;;26.50;2201.60;;;;;;5091669;28;20059;-68
2021/01/29 04:23:26;;;;;;;26.48;13.20;;;26.50;2201.60;;;;;;5114107;27;20050;-73
2021/01/29 04:25:57;;;;;;;47.22;25.85;;;26.50;2201.60;;;;;;5097072;28;20472;-67
2021/01/29 04:28:23;;;;;;;30.73;16.75;;;26.50;2201.60;;;;;;5095109;28;20024;-73
2021/01/29 04:30:51;;;;;;;44.78;22.30;;;51.20;2227.20;;;;;;5099761;27;20088;-69
2021/01/29 04:33:34;;;;;;;87.68;33.85;;;51.20;2227.20;;;;;;5099057;28;20357;-70
2021/01/29 04:36:00;;;;;;;82.93;34.42;;;51.30;2227.20;;;;;;5100267;27;20487;-71
2021/01/29 04:38:40;;;;;;;33.22;16.73;;;51.20;2227.20;;;;;;5079132;28;20034;-67
2021/01/29 04:41:15;;;;;;;27.52;14.00;;;51.30;2227.20;;;;;;5102297;27;20542;-69
2021/01/29 04:43:51;;;;;;;33.38;17.95;;;51.30;2227.20;;;;;;5118008;27;20016;-68
2021/01/29 04:46:31;;;;;;;27.15;15.50;;;51.30;2227.20;;;;;;5097513;27;20468;-67
2021/01/29 04:49:16;;;;;;;25.08;13.73;;;51.30;2227.20;;;;;;5121615;27;20030;-66
2021/01/29 04:52:12;;;;;;;25.60;14.10;;;51.40;2227.20;;;;;;5113473;27;20106;-70
2021/01/29 04:54:49;;;;;;;24.75;13.88;;;51.50;2227.20;;;;;;5076434;28;20118;-69
2021/01/29 04:57:34;;;;;;;51.30;22.85;;;51.50;2227.20;;;;;;5094402;28;20026;-67
2021/01/29 05:00:29;;;;;;;79.82;31.48;;;51.40;2227.20;;;;;;5093863;28;20026;-68
2021/01/29 05:03:12;;;;;;;50.13;22.75;;;51.40;2227.20;;;;;;5087446;28;20372;-68
2021/01/29 05:06:03;;;;;;;89.05;34.35;;;51.40;2227.20;;;;;;5112561;28;20027;-68
2021/01/29 05:09:04;;;;;;;55.30;24.27;;;51.40;2227.20;;;;;;5113244;28;20032;-69
2021/01/29 05:11:32;;;;;;;65.43;26.42;;;51.50;2227.20;;;;;;5058136;28;20035;-69
2021/01/29 05:14:22;;;;;;;132.30;48.58;;;51.50;2227.20;;;;;;5112372;28;20066;-68
2021/01/29 05:16:57;;;;;;;41.00;18.73;;;51.50;2227.20;;;;;;5086592;28;20034;-71
2021/01/29 05:19:29;;;;;;;90.72;35.78;;;51.60;2227.20;;;;;;5112020;28;20091;-68
2021/01/29 05:22:32;;;;;;;58.17;28.45;;;51.60;2227.20;;;;;;5094013;28;20040;-70
2021/01/29 05:25:24;;;;;;;26.05;13.55;;;51.60;2227.20;;;;;;5101553;28;20032;-72
2021/01/29 05:28:07;;;;;;;28.73;15.48;;;51.60;2227.20;;;;;;5120414;27;20375;-68
2021/01/29 05:30:48;;;;;;;45.88;23.60;;;51.60;2227.20;;;;;;5097630;28;20379;-73
2021/01/29 05:33:22;;;;;;;23.15;12.98;;;51.50;2227.20;;;;;;5122468;27;20445;-67
2021/01/29 05:36:26;;;;;;;21.23;12.55;;;51.50;2227.20;;;;;;5090466;27;20494;-74
2021/01/29 05:39:10;;;;;;;30.40;16.60;;;51.50;2227.20;;;;;;5115438;27;20035;-68
2021/01/29 05:41:52;;;;;;;24.52;13.93;;;51.50;2227.20;;;;;;5115525;27;20029;-68
2021/01/29 05:44:39;;;;;;;40.95;18.80;;;51.60;2227.20;;;;;;5106770;27;20034;-69
2021/01/29 05:47:05;;;;;;;71.60;26.10;;;51.60;2227.20;;;;;;5125939;27;20026;-70
2021/01/29 05:49:49;;;;;;;63.50;23.40;;;51.60;2227.20;;;;;;5122231;27;20023;-69
2021/01/29 05:52:39;;;;;;;82.82;29.15;;;51.60;2227.20;;;;;;5114553;27;20020;-72
2021/01/29 05:55:26;;;;;;;74.47;27.20;;;51.60;2227.20;;;;;;5112446;27;20027;-68
2021/01/29 05:57:58;;;;;;;90.07;35.47;;;51.60;2227.20;;;;;;5086973;28;20403;-69
2021/01/29 06:01:04;;;;;;;78.57;32.47;;;51.60;2227.20;;;;;;5093266;28;20165;-67
2021/01/29 06:04:01;;;;;;;121.47;47.22;;;51.60;2227.20;;;;;;5008822;28;20176;-68
2021/01/29 06:07:14;;;;;;;54.03;23.35;;;51.70;2227.20;;;;;;5009173;28;20048;-68
2021/01/29 06:10:10;;;;;;;64.43;26.05;;;51.60;2227.20;;;;;;4989739;28;20093;-69
2021/01/29 06:12:56;;;;;;;62.53;27.55;;;51.60;2227.20;;;;;;5109438;27;21093;-69
2021/01/29 06:15:50;;;;;;;61.00;27.73;;;51.60;2227.20;;;;;;5089975;28;20081;-68
2021/01/29 06:18:27;;;;;;;40.60;22.60;;;51.60;2227.20;;;;;;5114618;27;20863;-69
2021/01/29 06:21:11;;;;;;;37.88;20.95;;;51.60;2227.20;;;;;;5111045;28;20049;-68
2021/01/29 06:24:01;;;;;;;40.75;21.45;;;51.70;2227.20;;;;;;5096521;28;20020;-69
2021/01/29 06:26:45;;;;;;;30.90;17.75;;;51.70;2227.20;;;;;;5110775;28;20015;-69
2021/01/29 06:29:31;;;;;;;29.38;16.63;;;51.80;2227.20;;;;;;5092332;28;20133;-68
2021/01/29 06:32:38;;;;;;;27.70;16.20;;;51.80;2227.20;;;;;;5111123;28;20383;-68
2021/01/29 06:35:10;;;;;;;30.27;15.88;;;51.90;2227.20;;;;;;5094591;28;20544;-69
2021/01/29 06:38:10;;;;;;;28.05;16.08;;;51.90;2227.20;;;;;;5092742;28;20024;-68
2021/01/29 06:40:51;;;;;;;29.10;15.13;;;52.00;2227.20;;;;;;5108177;28;20028;-69
2021/01/29 06:43:35;;;;;;;;;;;52.10;2227.20;;;;;;5110999;28;20030;-72
2021/01/29 06:46:30;;;;;;;41.63;21.83;;;52.10;2227.20;;;;;;5108722;28;20360;-70
2021/01/29 06:49:29;;;;;;;34.33;18.92;;;76.80;2227.20;;;;;;5107979;28;20031;-68
2021/01/29 06:52:16;;;;;;;59.83;29.73;;;76.80;2227.20;;;;;;5109133;28;20035;-68
2021/01/29 06:55:09;;;;;;;70.80;33.95;;;76.80;2227.20;;;;;;5108496;28;20031;-69
2021/01/29 06:58:05;;;;;;;42.08;21.85;;;76.90;2227.20;;;;;;5107410;28;20020;-68
2021/01/29 07:01:03;;;;;;;60.13;28.95;;;77.10;2227.20;;;;;;5113373;28;20024;-69
2021/01/29 07:03:44;;;;;;;44.42;24.27;;;77.10;2227.20;;;;;;5094658;28;20368;-68
2021/01/29 07:06:35;;;;;;;68.32;32.53;;;77.00;2227.20;;;;;;5112830;28;20028;-69
2021/01/29 07:09:22;;;;;;;65.47;33.35;;;77.20;2227.20;;;;;;5096353;28;20028;-68
2021/01/29 07:11:56;;;;;;;57.20;28.23;;;77.40;2227.20;;;;;;5114409;28;20023;-68
2021/01/29 07:14:40;;;;;;;49.42;25.90;;;77.50;2227.20;;;;;;5096681;28;20484;-69
2021/01/29 07:17:11;;;;;;;40.92;23.30;;;77.60;2227.20;;;;;;5113553;28;20142;-69
2021/01/29 07:20:06;;;;;;;40.88;23.83;;;102.40;2227.20;;;;;;5114491;28;20023;-68
2021/01/29 07:23:07;;;;;;;46.58;26.85;;;102.50;2227.20;;;;;;5096397;28;20091;-68
2021/01/29 07:25:39;;;;;;;57.80;29.35;;;102.60;2227.20;;;;;;5099041;28;20027;-65
2021/01/29 07:28:37;;;;;;;51.92;28.30;;;102.50;2227.20;;;;;;5111750;27;20057;-67
2021/01/29 07:31:39;;;;;;;47.15;22.52;;;102.50;2227.20;;;;;;5086400;28;20443;-67
2021/01/29 07:34:43;;;;;;;45.30;23.08;;;102.40;2227.20;;;;;;5094623;28;20377;-67
2021/01/29 07:37:33;;;;;;;50.65;26.70;;;102.40;2227.20;;;;;;5096775;28;20048;-67
2021/01/29 07:40:32;;;;;;;49.45;27.02;;;77.70;2227.20;;;;;;5113523;27;20042;-67
2021/01/29 07:43:21;;;;;;;40.65;24.45;;;77.70;2227.20;;;;;;5102918;27;20023;-69
2021/01/29 07:46:20;;;;;;;38.42;23.40;;;77.70;2227.20;;;;;;5095949;27;20077;-69
2021/01/29 07:48:57;;;;;;;32.25;19.58;;;102.50;2227.20;;;;;;5097049;28;20475;-66
2021/01/29 07:51:57;;;;;;;33.70;20.55;;;102.70;2227.20;;;;;;5082057;28;20030;-68
2021/01/29 07:54:44;;;;;;;32.58;19.05;;;103.10;2227.20;;;;;;5097430;28;20045;-67
2021/01/29 07:57:36;;;;;;;34.15;18.77;;;128.20;2252.80;;;;;;5094219;28;20262;-66
2021/01/29 08:00:24;;;;;;;35.65;17.60;;;128.80;2252.80;;;;;;5102797;27;20041;-67
2021/01/29 08:03:05;;;;;;;30.67;17.52;;;153.60;2252.80;;;;;;5112319;27;20069;-67
2021/01/29 08:05:38;;;;;;;35.78;19.23;;;153.60;2252.80;;;;;;5094641;28;20073;-67
2021/01/29 08:08:27;;;;;;;38.17;19.67;;;153.60;2252.80;;;;;;5090438;28;20041;-68
2021/01/29 08:10:54;;;;;;;43.03;22.25;;;153.60;2252.80;;;;;;5096385;28;20067;-68
2021/01/29 08:13:40;;;;;;;29.08;16.33;;;128.90;2252.80;;;;;;5093143;28;20446;-67
2021/01/29 08:16:28;;;;;;;33.00;19.13;;;128.70;2252.80;;;;;;5112281;28;20060;-67
2021/01/29 08:19:01;;;;;;;18.58;12.45;;;128.70;2252.80;;;;;;5108999;28;20468;-68
2021/01/29 08:21:48;;;;;;;25.08;14.40;;;128.50;2252.80;;;;;;5091904;28;20043;-68
2021/01/29 08:24:38;;;;;;;27.75;16.17;;;128.20;2252.80;;;;;;5112804;28;20020;-67
2021/01/29 08:27:23;;;;;;;30.50;19.17;;;128.10;2252.80;;;;;;5112185;28;20041;-67
2021/01/29 08:30:13;;;;;;;35.63;21.90;;;128.00;2252.80;;;;;;5080696;28;20042;-68
2021/01/29 08:32:52;;;;;;;77.63;31.13;;;128.20;2252.80;;;;;;5085603;28;20064;-67
2021/01/29 08:35:21;;;;;;;56.13;27.17;;;128.80;2252.80;;;;;;5078622;28;20026;-67
2021/01/29 08:37:47;;;;;;;41.45;24.92;;;153.70;2252.80;;;;;;5111319;28;20053;-66
2021/01/29 08:40:24;;;;;;;38.47;23.15;;;153.70;2252.80;;;;;;5111855;28;20023;-66
2021/01/29 08:42:59;;;;;;;34.90;21.13;;;128.80;2252.80;;;;;;5089999;27;20027;-67
2021/01/29 08:45:52;;;;;;;35.63;22.75;;;128.70;2252.80;;;;;;5113881;27;20027;-68
2021/01/29 08:48:29;;;;;;;58.50;34.05;;;128.70;2252.80;;;;;;5112538;28;20031;-67
2021/01/29 08:50:59;;;;;;;28.08;18.83;;;128.80;2252.80;;;;;;5095883;28;20035;-66
2021/01/29 08:54:01;;;;;;;32.08;21.13;;;153.90;2252.80;;;;;;5082428;28;20036;-65
2021/01/29 08:57:04;;;;;;;22.98;13.85;;;256.20;1945.60;;;;;;5111463;28;20429;-67
2021/01/29 08:59:34;;;;;;;25.15;15.98;;;333.30;1638.40;;;;;;5092370;28;20027;-69
2021/01/29 09:02:21;;;;;;;20.48;12.88;;;333.30;1638.40;;;;;;5093713;28;20031;-67
2021/01/29 09:04:50;;;;;;;22.38;14.35;;;308.10;1664.00;;;;;;5111924;28;20102;-69
2021/01/29 09:07:20;;;;;;;32.17;18.67;;;281.80;1792.00;;;;;;5109229;28;20111;-73
2021/01/29 09:09:46;;;;;;;29.50;18.50;;;256.00;1894.40;;;;;;5077796;28;20019;-69
2021/01/29 09:12:27;;;;;;;22.00;13.70;;;230.80;1971.20;;;;;;5091614;28;20388;-73
2021/01/29 09:14:57;;;;;;;22.65;14.75;;;230.60;1971.20;;;;;;5076165;28;20116;-69
2021/01/29 09:17:36;;;;;;;23.67;15.13;;;231.10;1945.60;;;;;;5092977;28;20031;-69
2021/01/29 09:20:07;;;;;;;24.75;15.45;;;256.00;1920.00;;;;;;5094182;28;20313;-68
2021/01/29 09:22:51;;;;;;;25.77;15.70;;;231.00;1971.20;;;;;;5075679;28;20072;-68
2021/01/29 09:25:48;;;;;;;19.83;13.10;;;256.30;1920.00;;;;;;5111411;28;20028;-69
2021/01/29 09:28:21;;;;;;;18.38;11.75;;;358.50;1638.40;;;;;;5064398;28;20061;-70
2021/01/29 09:30:58;;;;;;;29.02;16.88;;;486.80;1177.60;;;;;;5111113;28;20020;-69
2021/01/29 09:33:46;;;;;;;18.63;11.90;;;589.40;972.80;;;;;;5092463;28;20045;-68
2021/01/29 09:36:20;;;;;;;20.17;12.95;;;615.30;921.60;;;;;;5082850;28;20081;-69
2021/01/29 09:39:01;;;;;;;17.30;10.30;;;564.10;1024.00;;;;;;5090536;28;20395;-69
2021/01/29 09:41:36;;;;;;;15.57;9.52;;;716.80;793.60;;;;;;5094572;28;20026;-70
2021/01/29 09:44:13;;;;;;;12.55;8.63;;;665.70;844.80;;;;;;5106793;28;20028;-68
2021/01/29 09:46:42;;;;;;;14.35;8.98;;;589.20;972.80;;;;;;5070238;28;20532;-70
2021/01/29 09:49:10;;;;;;;30.75;18.50;;;486.90;1126.40;;;;;;5061143;28;20391;-71
2021/01/29 09:51:37;;;;;;;13.25;8.70;;;435.80;1228.80;;;;;;5065436;28;20379;-72
2021/01/29 09:54:14;;;;;;;13.60;9.63;;;409.80;1356.80;;;;;;5107367;28;20020;-71
2021/01/29 09:56:41;;;;;;;11.32;7.85;;;384.10;1382.40;;;;;;5094838;27;20486;-71
2021/01/29 09:59:21;;;;;;;13.68;8.40;;;358.90;1459.20;;;;;;5092621;28;20089;-70
2021/01/29 10:01:55;;;;;;;16.15;10.35;;;333.40;1561.60;;;;;;5092187;28;20016;-69
2021/01/29 10:05:05;;;;;;;14.80;10.93;;;333.30;1587.20;;;;;;5077054;28;20371;-70
2021/01/29 10:07:31;;;;;;;14.82;8.35;;;332.90;1612.80;;;;;;5031415;28;20035;-68
2021/01/29 10:10:20;;;;;;;12.80;8.57;;;333.40;1510.40;;;;;;5092639;28;20027;-70
2021/01/29 10:12:51;;;;;;;10.07;6.60;;;435.60;1254.40;;;;;;5096810;27;20084;-68
2021/01/29 10:15:21;;;;;;;10.57;7.43;;;486.40;1152.00;;;;;;5110218;27;20020;-69
2021/01/29 10:17:57;;;;;;;13.80;9.02;;;512.50;1075.20;;;;;;5073853;28;20015;-69
2021/01/29 10:20:25;;;;;;;14.15;9.73;;;487.30;1100.80;;;;;;5093701;28;20088;-67
2021/01/29 10:23:18;;;;;;;10.10;6.78;;;487.00;1126.40;;;;;;5090514;28;20495;-69
2021/01/29 10:26:17;;;;;;;10.88;6.97;;;461.10;1203.20;;;;;;5064030;28;20045;-69
2021/01/29 10:29:08;;;;;;;10.73;8.55;;;410.20;1254.40;;;;;;5110035;28;20023;-69
2021/01/29 10:32:02;;;;;;;8.13;5.63;;;384.80;1280.00;;;;;;5110902;28;20031;-69
2021/01/29 10:34:56;;;;;;;10.95;8.07;;;359.30;1382.40;;;;;;5110199;28;20015;-70
2021/01/29 10:37:24;;;;;;;11.65;7.75;;;358.80;1408.00;;;;;;5110540;28;20252;-67
2021/01/29 10:40:21;;;;;;;8.07;5.70;;;358.70;1459.20;;;;;;5109947;28;20015;-69
2021/01/29 10:42:56;;;;;;;10.77;7.90;;;358.60;1459.20;;;;;;5110701;28;20413;-68
2021/01/29 10:45:52;;;;;;;10.98;7.20;;;358.80;1459.20;;;;;;5110505;28;20497;-69
2021/01/29 10:48:37;;;;;;;9.13;5.60;;;410.00;1331.20;;;;;;5109209;28;20483;-69
2021/01/29 10:51:47;;;;;;;13.40;8.00;;;537.90;998.40;;;;;;5075690;28;20506;-69
2021/01/29 10:54:13;;;;;;;11.57;7.15;;;666.00;819.20;;;;;;5110058;28;20039;-71
2021/01/29 10:56:57;;;;;;;10.52;6.28;;;666.50;768.00;;;;;;5110891;28;20023;-69
2021/01/29 10:59:51;;;;;;;13.43;7.47;;;589.70;870.40;;;;;;5110507;28;20417;-68
2021/01/29 11:02:36;;;;;;;7.43;4.88;;;512.30;1049.60;;;;;;5058475;28;20084;-69
2021/01/29 11:05:10;;;;;;;7.43;4.78;;;435.50;1203.20;;;;;;5089590;28;20035;-67
2021/01/29 11:07:37;;;;;;;11.10;6.05;;;409.70;1280.00;;;;;;5076682;28;20080;-67
2021/01/29 11:10:21;;;;;;;12.70;7.88;;;384.10;1356.80;;;;;;5074855;28;20379;-68
2021/01/29 11:13:04;;;;;;;13.68;8.18;;;359.20;1382.40;;;;;;5109668;28;20059;-67
2021/01/29 11:15:54;;;;;;;9.48;6.72;;;359.20;1356.80;;;;;;5092164;28;20015;-67
2021/01/29 11:18:23;;;;;;;8.27;5.57;;;409.90;1305.60;;;;;;5112860;28;20019;-67
2021/01/29 11:20:49;;;;;;;9.57;5.85;;;487.00;1075.20;;;;;;5088307;28;20103;-68
2021/01/29 11:23:39;;;;;;;11.43;8.20;;;538.00;998.40;;;;;;5077103;28;20131;-67
2021/01/29 11:26:26;;;;;;;11.27;8.52;;;563.20;1024.00;;;;;;5094208;28;20535;-68
2021/01/29 11:29:10;;;;;;;11.20;7.85;;;486.70;1075.20;;;;;;5092670;28;20028;-66
2021/01/29 11:32:13;;;;;;;9.38;5.32;;;435.50;1228.80;;;;;;5109524;28;20379;-67
2021/01/29 11:34:38;;;;;;;12.20;7.55;;;384.80;1331.20;;;;;;5109703;28;20368;-67
2021/01/29 11:37:16;;;;;;;12.27;6.97;;;384.50;1356.80;;;;;;5109748;28;20030;-68
2021/01/29 11:39:56;;;;;;;9.90;6.07;;;359.20;1433.60;;;;;;5085476;28;20023;-68
2021/01/29 11:42:50;;;;;;;11.38;6.43;;;358.70;1408.00;;;;;;5109524;28;20164;-67
2021/01/29 11:45:24;;;;;;;17.80;10.10;;;333.70;1484.80;;;;;;5098500;27;20505;-67
2021/01/29 11:47:53;;;;;;;15.45;8.75;;;358.40;1484.80;;;;;;5099151;28;20024;-69
2021/01/29 11:50:39;;;;;;;14.88;8.40;;;358.60;1484.80;;;;;;5119829;27;20023;-69
2021/01/29 11:53:43;;;;;;;13.52;8.07;;;358.70;1484.80;;;;;;5101224;27;20027;-70
2021/01/29 11:56:26;;;;;;;8.38;5.38;;;358.50;1510.40;;;;;;5085773;28;20763;-67
2021/01/29 11:59:00;;;;;;;10.32;5.78;;;333.50;1536.00;;;;;;5095386;28;20111;-70
2021/01/29 12:01:40;;;;;;;12.07;8.00;;;333.60;1561.60;;;;;;5077426;28;20016;-68
2021/01/29 12:04:21;;;;;;;12.80;8.07;;;358.40;1536.00;;;;;;5094909;28;20024;-69
2021/01/29 12:06:50;;;;;;;12.18;6.70;;;384.10;1433.60;;;;;;5113545;28;20034;-69
2021/01/29 12:09:22;;;;;;;9.32;5.18;;;409.90;1280.00;;;;;;5078295;28;20031;-68
2021/01/29 12:12:01;;;;;;;14.30;7.63;;;410.30;1280.00;;;;;;5079070;28;20031;-69
2021/01/29 12:15:04;;;;;;;9.95;6.35;;;384.80;1305.60;;;;;;5096239;28;20024;-69
2021/01/29 12:17:31;;;;;;;17.83;8.88;;;384.10;1356.80;;;;;;5112153;28;20102;-69
2021/01/29 12:20:07;;;;;;;12.00;7.15;;;359.00;1408.00;;;;;;5093883;28;20463;-68
2021/01/29 12:22:38;;;;;;;9.60;6.57;;;358.60;1459.20;;;;;;5079037;28;20446;-67
2021/01/29 12:25:32;;;;;;;9.60;6.70;;;358.40;1484.80;;;;;;5078616;28;20159;-68
2021/01/29 12:28:06;;;;;;;10.13;6.85;;;333.70;1484.80;;;;;;5111964;27;20027;-68
2021/01/29 12:30:46;;;;;;;23.27;15.38;;;333.50;1510.40;;;;;;5118470;27;20371;-68
2021/01/29 12:33:18;;;;;;;24.20;15.25;;;333.30;1536.00;;;;;;5099108;28;20015;-68
2021/01/29 12:36:00;;;;;;;17.50;9.90;;;333.20;1587.20;;;;;;5078449;28;20051;-69
2021/01/29 12:38:44;;;;;;;26.67;14.30;;;333.10;1561.60;;;;;;5082450;28;20016;-68
2021/01/29 12:41:47;;;;;;;15.38;8.20;;;333.30;1536.00;;;;;;5096072;28;20019;-68
2021/01/29 12:44:32;;;;;;;21.02;11.98;;;333.40;1536.00;;;;;;5107411;28;20016;-68
2021/01/29 12:47:16;;;;;;;12.93;8.05;;;333.50;1561.60;;;;;;5112229;28;20053;-68
2021/01/29 12:50:37;;;;;;;15.20;10.23;;;333.40;1561.60;;;;;;5112330;28;20047;-68
2021/01/29 12:53:25;;;;;;;14.85;9.40;;;333.20;1561.60;;;;;;5029564;28;20044;-69
2021/01/29 12:56:17;;;;;;;17.23;10.57;;;358.60;1459.20;;;;;;5095640;28;20059;-68
2021/01/29 12:58:54;;;;;;;15.43;9.10;;;333.70;1536.00;;;;;;5111940;28;20035;-68
2021/01/29 13:01:35;;;;;;;16.35;9.70;;;333.60;1510.40;;;;;;5096286;28;20031;-68
2021/01/29 13:04:42;;;;;;;17.15;9.00;;;333.50;1510.40;;;;;;5112497;28;20470;-70
2021/01/29 13:07:09;;;;;;;26.73;13.82;;;358.80;1459.20;;;;;;5098437;28;20039;-70
2021/01/29 13:09:50;;;;;;;17.70;10.90;;;333.70;1536.00;;;;;;5094113;28;20020;-69
2021/01/29 13:12:33;;;;;;;19.02;10.95;;;333.70;1510.40;;;;;;5110206;28;20115;-69